Time;durP1;ratioP1;P1;durP2;ratioP2;P2;SDS_P1;SDS_P2;PMS_P1;PMS_P2;Temp;Humidity;BMP_temperature;BMP_pressure;BME280_temperature;BME280_humidity;BME280_pressure;Samples;Min_cycle;Max_cycle;Signal;HPM_P1;HPM_P2
2023/10/15 00:00:50;;;;;;;6.60;2.65;;;8.40;99.90;;;;;;5019952;28;20588;-74
2023/10/15 00:03:16;;;;;;;6.23;2.50;;;8.40;99.90;;;;;;5026685;28;20755;-72
2023/10/15 00:05:43;;;;;;;4.32;2.80;;;8.30;99.90;;;;;;5027253;28;20518;-72
2023/10/15 00:08:10;;;;;;;4.00;2.40;;;8.30;99.90;;;;;;5027953;28;20419;-72
2023/10/15 00:10:37;;;;;;;6.90;2.47;;;8.40;99.90;;;;;;5024666;28;20447;-72
2023/10/15 00:13:05;;;;;;;5.40;2.60;;;8.30;99.90;;;;;;5030621;28;20427;-72
2023/10/15 00:15:33;;;;;;;5.23;2.40;;;8.30;99.90;;;;;;5027959;28;20995;-73
2023/10/15 00:18:02;;;;;;;5.00;2.30;;;8.30;99.90;;;;;;5031899;28;20517;-72
2023/10/15 00:20:34;;;;;;;5.43;2.25;;;8.30;99.90;;;;;;5030922;28;20419;-73
2023/10/15 00:23:04;;;;;;;3.97;2.10;;;8.30;99.90;;;;;;5032092;28;20454;-73
2023/10/15 00:25:35;;;;;;;5.60;2.30;;;8.30;99.90;;;;;;5023499;28;20431;-72
2023/10/15 00:28:05;;;;;;;4.05;2.40;;;8.20;99.90;;;;;;5030396;28;20422;-73
2023/10/15 00:30:34;;;;;;;6.38;2.40;;;8.20;99.90;;;;;;5030269;28;20434;-72
2023/10/15 00:33:03;;;;;;;7.78;2.58;;;8.20;99.90;;;;;;5056591;22;20417;-71
2023/10/15 00:35:33;;;;;;;4.82;2.08;;;8.10;99.90;;;;;;5044010;28;20518;-71
2023/10/15 00:38:00;;;;;;;3.17;1.80;;;8.10;99.90;;;;;;5046416;28;20417;-72
2023/10/15 00:40:28;;;;;;;6.95;2.50;;;8.00;99.90;;;;;;5043877;28;20447;-71
2023/10/15 00:42:57;;;;;;;6.00;2.40;;;8.00;99.90;;;;;;5047024;28;20490;-70
2023/10/15 00:45:25;;;;;;;5.55;2.50;;;8.00;99.90;;;;;;5037994;28;20546;-71
2023/10/15 00:48:02;;;;;;;4.55;2.40;;;8.00;99.90;;;;;;5040021;28;20451;-72
2023/10/15 00:50:34;;;;;;;5.90;2.20;;;8.00;99.90;;;;;;5046331;28;20428;-70
2023/10/15 00:53:06;;;;;;;5.13;2.50;;;7.90;99.90;;;;;;5039491;28;20504;-71
2023/10/15 00:55:35;;;;;;;4.87;2.50;;;7.90;99.90;;;;;;5043878;28;20555;-70
2023/10/15 00:58:07;;;;;;;5.50;2.50;;;7.80;99.90;;;;;;5045628;28;20888;-71
2023/10/15 01:00:51;;;;;;;5.13;2.40;;;7.80;99.90;;;;;;5045397;28;21121;-70
2023/10/15 01:03:30;;;;;;;5.35;2.63;;;7.80;99.90;;;;;;5040062;28;20919;-70
2023/10/15 01:06:05;;;;;;;5.40;3.10;;;7.80;99.90;;;;;;5045503;28;20517;-70
2023/10/15 01:08:35;;;;;;;4.57;2.80;;;7.80;99.90;;;;;;5041852;28;20937;-71
2023/10/15 01:11:09;;;;;;;5.18;2.70;;;7.70;99.90;;;;;;5043829;28;20449;-71
2023/10/15 01:13:37;;;;;;;6.45;2.78;;;7.70;99.90;;;;;;5044330;28;20504;-71
2023/10/15 01:16:05;;;;;;;5.78;2.50;;;7.70;99.90;;;;;;5045174;28;20926;-72
2023/10/15 01:18:33;;;;;;;4.30;2.75;;;7.70;99.90;;;;;;5047637;28;20425;-71
2023/10/15 01:21:01;;;;;;;5.20;2.53;;;7.70;99.90;;;;;;5039388;28;20433;-71
2023/10/15 01:23:31;;;;;;;5.35;2.60;;;7.70;99.90;;;;;;5040642;28;20597;-71
2023/10/15 01:26:00;;;;;;;5.35;2.50;;;7.70;99.90;;;;;;5046370;28;20452;-71
2023/10/15 01:28:36;;;;;;;4.55;2.50;;;7.70;99.90;;;;;;5041993;28;20797;-70
2023/10/15 01:31:05;;;;;;;5.78;2.60;;;7.70;99.90;;;;;;5037908;28;20447;-73
2023/10/15 01:33:36;;;;;;;5.30;2.45;;;7.70;99.90;;;;;;5046834;28;20441;-70
2023/10/15 01:36:06;;;;;;;6.47;2.67;;;7.70;99.90;;;;;;5045781;28;20438;-72
2023/10/15 01:38:34;;;;;;;4.90;2.40;;;7.60;99.90;;;;;;5044579;28;20624;-70
2023/10/15 01:41:05;;;;;;;5.20;2.77;;;7.60;99.90;;;;;;5046549;28;20527;-71
2023/10/15 01:43:35;;;;;;;5.35;2.50;;;7.60;99.90;;;;;;5046477;28;20535;-70
2023/10/15 01:46:10;;;;;;;6.10;2.70;;;7.60;99.90;;;;;;5044349;28;20463;-70
2023/10/15 01:48:39;;;;;;;4.53;3.00;;;7.60;99.90;;;;;;5033545;28;20434;-70
2023/10/15 01:51:06;;;;;;;7.60;2.40;;;7.60;99.90;;;;;;5042627;28;20981;-70
2023/10/15 01:53:36;;;;;;;7.07;2.53;;;7.60;99.90;;;;;;5045925;28;20430;-71
2023/10/15 01:56:04;;;;;;;4.82;2.40;;;7.50;99.90;;;;;;5046024;28;20425;-71
2023/10/15 01:58:32;;;;;;;4.75;2.40;;;7.50;99.90;;;;;;5035074;28;20420;-71
2023/10/15 02:01:08;;;;;;;5.60;2.35;;;7.50;99.90;;;;;;5037959;28;20921;-70
2023/10/15 02:03:37;;;;;;;6.03;2.50;;;7.50;99.90;;;;;;5039181;28;20465;-70
2023/10/15 02:06:06;;;;;;;5.20;2.43;;;7.50;99.90;;;;;;5037224;28;20525;-73
2023/10/15 02:08:36;;;;;;;4.30;2.17;;;7.50;99.90;;;;;;5045550;28;20535;-71
2023/10/15 02:11:15;;;;;;;5.03;2.40;;;7.50;99.90;;;;;;5042771;28;20444;-71
2023/10/15 02:13:45;;;;;;;6.22;2.67;;;7.50;99.90;;;;;;5042933;28;20433;-70
2023/10/15 02:16:15;;;;;;;6.45;2.40;;;7.50;99.90;;;;;;5038038;28;20441;-70
2023/10/15 02:18:44;;;;;;;6.30;2.47;;;7.50;99.90;;;;;;5046407;28;20808;-70
2023/10/15 02:21:11;;;;;;;4.20;2.30;;;7.50;99.90;;;;;;5041011;28;20440;-70
2023/10/15 02:23:48;;;;;;;5.70;2.75;;;7.50;99.90;;;;;;5037399;28;20429;-71
2023/10/15 02:26:18;;;;;;;7.22;2.55;;;7.50;99.90;;;;;;5038982;28;20761;-72
2023/10/15 02:28:47;;;;;;;5.25;2.72;;;7.40;99.90;;;;;;5031932;28;20911;-71
2023/10/15 02:31:19;;;;;;;3.90;2.60;;;7.50;99.90;;;;;;5043503;28;20444;-70
2023/10/15 02:33:46;;;;;;;7.30;3.30;;;7.40;99.90;;;;;;5038986;28;20528;-70
2023/10/15 02:36:16;;;;;;;4.40;2.50;;;7.40;99.90;;;;;;5041179;28;20429;-71
2023/10/15 02:38:52;;;;;;;3.78;2.20;;;7.40;99.90;;;;;;5040298;28;20417;-70
2023/10/15 02:41:20;;;;;;;6.72;2.53;;;7.40;99.90;;;;;;5042214;28;20437;-70
2023/10/15 02:43:48;;;;;;;4.05;2.40;;;7.40;99.90;;;;;;5046070;28;20406;-72
2023/10/15 02:46:22;;;;;;;5.13;2.50;;;7.40;99.90;;;;;;5043898;28;21011;-72
2023/10/15 02:48:49;;;;;;;5.75;2.60;;;7.40;99.90;;;;;;5041977;28;20422;-70
2023/10/15 02:51:23;;;;;;;6.97;2.30;;;7.40;99.90;;;;;;5041479;28;20795;-71
2023/10/15 02:53:52;;;;;;;5.80;2.05;;;7.40;99.90;;;;;;5035458;28;20587;-72
2023/10/15 02:56:21;;;;;;;6.57;2.70;;;7.40;99.90;;;;;;5045223;28;20433;-71
2023/10/15 02:58:48;;;;;;;5.07;2.30;;;7.40;99.90;;;;;;5036790;28;20418;-70
2023/10/15 03:01:19;;;;;;;4.47;2.40;;;7.40;99.90;;;;;;5040212;28;20437;-70
2023/10/15 03:03:49;;;;;;;4.85;2.20;;;7.40;99.90;;;;;;5044171;28;20433;-72
2023/10/15 03:06:24;;;;;;;3.30;1.90;;;7.40;99.90;;;;;;5037816;28;20510;-71
2023/10/15 03:08:51;;;;;;;6.38;2.53;;;7.50;99.90;;;;;;5045100;28;20528;-71
2023/10/15 03:11:21;;;;;;;5.45;2.40;;;7.40;99.90;;;;;;5043336;28;20863;-71
2023/10/15 03:13:52;;;;;;;5.38;2.35;;;7.50;99.90;;;;;;5044070;28;20524;-70
2023/10/15 03:16:20;;;;;;;6.72;2.65;;;7.50;99.90;;;;;;5039564;28;20437;-70
2023/10/15 03:18:48;;;;;;;2.90;1.95;;;7.50;99.90;;;;;;5044248;28;20425;-71
2023/10/15 03:21:24;;;;;;;4.63;2.30;;;7.50;99.90;;;;;;5041528;28;20869;-70
2023/10/15 03:23:52;;;;;;;5.60;2.60;;;7.50;99.90;;;;;;5043231;28;20471;-70
2023/10/15 03:26:20;;;;;;;5.63;2.40;;;7.50;99.90;;;;;;5039709;28;20425;-71
2023/10/15 03:28:51;;;;;;;5.67;2.70;;;7.60;99.90;;;;;;5039408;28;20453;-71
2023/10/15 03:31:20;;;;;;;4.82;2.30;;;7.60;99.90;;;;;;5041045;28;20831;-70
2023/10/15 03:34:12;;;;;;;6.35;2.53;;;7.60;99.90;;;;;;5038537;28;20450;-70
2023/10/15 03:36:48;;;;;;;4.68;2.00;;;7.70;99.90;;;;;;5040307;28;20426;-70
2023/10/15 03:39:24;;;;;;;4.25;2.40;;;7.70;99.90;;;;;;5043641;28;20433;-71
2023/10/15 03:42:09;;;;;;;4.68;2.50;;;7.70;99.90;;;;;;5044179;28;20907;-71
2023/10/15 03:44:37;;;;;;;3.65;2.40;;;7.80;99.90;;;;;;5044171;28;20432;-71
2023/10/15 03:47:04;;;;;;;5.47;2.20;;;7.80;99.90;;;;;;5042989;28;20531;-71
2023/10/15 03:49:32;;;;;;;4.97;2.80;;;7.90;99.90;;;;;;5036571;28;20424;-70
2023/10/15 03:51:59;;;;;;;4.03;2.10;;;7.90;99.90;;;;;;5044066;28;20436;-71
2023/10/15 03:54:25;;;;;;;6.88;2.40;;;7.90;99.90;;;;;;5043404;28;20440;-71
2023/10/15 03:56:56;;;;;;;5.85;2.53;;;7.90;99.90;;;;;;5043709;28;20440;-70
2023/10/15 03:59:26;;;;;;;6.70;2.70;;;7.90;99.90;;;;;;5035100;28;20413;-72
2023/10/15 04:01:52;;;;;;;4.97;2.60;;;8.00;99.90;;;;;;5038660;28;20430;-70
2023/10/15 04:04:20;;;;;;;4.90;2.60;;;8.00;99.90;;;;;;5043561;28;20429;-71
2023/10/15 04:06:52;;;;;;;6.60;3.00;;;8.00;99.90;;;;;;5043113;28;20444;-72
2023/10/15 04:09:23;;;;;;;4.57;2.40;;;8.00;99.90;;;;;;5033769;28;20486;-71
2023/10/15 04:11:50;;;;;;;5.50;2.42;;;8.00;99.90;;;;;;5043280;28;21146;-71
2023/10/15 04:14:26;;;;;;;6.82;2.60;;;8.00;99.90;;;;;;5035677;28;20409;-70
2023/10/15 04:16:53;;;;;;;5.88;2.70;;;8.00;99.90;;;;;;5042158;28;21077;-71
2023/10/15 04:19:19;;;;;;;7.32;2.80;;;8.00;99.90;;;;;;5043097;28;20433;-70
2023/10/15 04:21:47;;;;;;;4.97;2.47;;;8.10;99.90;;;;;;5041285;28;20461;-71
2023/10/15 04:24:18;;;;;;;6.67;2.50;;;8.20;99.90;;;;;;5038083;28;20606;-71
2023/10/15 04:26:48;;;;;;;5.07;2.50;;;8.20;99.90;;;;;;5043210;28;20460;-72
2023/10/15 04:29:20;;;;;;;5.57;2.90;;;8.20;99.90;;;;;;5044708;28;20872;-71
2023/10/15 04:31:59;;;;;;;5.10;2.90;;;8.20;99.90;;;;;;5044063;28;20429;-71
2023/10/15 04:34:28;;;;;;;5.00;2.33;;;8.20;99.90;;;;;;5038107;28;20441;-70
2023/10/15 04:36:57;;;;;;;5.05;2.90;;;8.20;99.90;;;;;;5045135;28;20436;-70
2023/10/15 04:39:23;;;;;;;3.60;2.40;;;8.20;99.90;;;;;;5039700;28;20512;-71
2023/10/15 04:41:50;;;;;;;3.90;2.50;;;8.30;99.90;;;;;;5039101;28;20538;-71
2023/10/15 04:44:25;;;;;;;4.35;2.67;;;8.20;99.90;;;;;;5033469;28;20742;-71
2023/10/15 04:47:04;;;;;;;4.30;2.60;;;8.20;99.90;;;;;;5032620;28;20589;-72
2023/10/15 04:49:31;;;;;;;4.68;2.30;;;8.20;99.90;;;;;;5043841;28;20430;-72
2023/10/15 04:51:58;;;;;;;4.03;2.43;;;8.20;99.90;;;;;;5037817;28;20435;-71
2023/10/15 04:54:25;;;;;;;5.07;2.80;;;8.20;99.90;;;;;;5038781;28;20801;-70
2023/10/15 04:56:52;;;;;;;6.60;2.70;;;8.20;99.90;;;;;;5043898;28;20812;-71
2023/10/15 04:59:19;;;;;;;6.30;3.00;;;8.20;99.90;;;;;;5036940;28;20436;-70
2023/10/15 05:01:48;;;;;;;5.72;2.60;;;8.30;99.90;;;;;;5039548;28;20456;-71
2023/10/15 05:04:16;;;;;;;4.80;2.75;;;8.30;99.90;;;;;;5040820;28;20431;-71
2023/10/15 05:06:43;;;;;;;5.27;2.57;;;8.30;99.90;;;;;;5046856;28;20429;-71
2023/10/15 05:09:20;;;;;;;3.80;2.30;;;8.30;99.90;;;;;;5046297;28;20455;-70
2023/10/15 05:11:48;;;;;;;6.28;2.80;;;8.30;99.90;;;;;;5046145;28;20437;-70
2023/10/15 05:14:14;;;;;;;7.80;2.80;;;8.30;99.90;;;;;;5043577;28;20421;-71
2023/10/15 05:16:41;;;;;;;6.88;2.80;;;8.20;99.90;;;;;;5040069;28;20887;-71
2023/10/15 05:19:08;;;;;;;4.18;2.60;;;8.10;99.90;;;;;;5040890;28;20513;-71
2023/10/15 05:21:36;;;;;;;4.85;2.78;;;8.00;99.90;;;;;;5046036;28;20429;-70
2023/10/15 05:24:03;;;;;;;4.97;2.60;;;8.00;99.90;;;;;;5039418;28;20514;-70
2023/10/15 05:26:30;;;;;;;6.20;2.55;;;8.00;99.90;;;;;;5045394;28;20869;-71
2023/10/15 05:28:56;;;;;;;4.40;2.40;;;8.00;99.90;;;;;;5037730;28;20451;-71
2023/10/15 05:31:23;;;;;;;4.20;2.50;;;7.90;99.90;;;;;;5041216;28;20832;-71
2023/10/15 05:33:51;;;;;;;3.78;2.47;;;7.90;99.90;;;;;;5045666;28;20417;-71
2023/10/15 05:36:17;;;;;;;3.95;2.28;;;7.90;99.90;;;;;;5043864;28;20441;-70
2023/10/15 05:38:45;;;;;;;6.10;2.60;;;7.80;99.90;;;;;;5046681;28;20419;-71
2023/10/15 05:41:12;;;;;;;5.25;2.60;;;7.80;99.90;;;;;;5039819;28;21075;-71
2023/10/15 05:43:39;;;;;;;3.83;2.40;;;7.70;99.90;;;;;;5045229;28;20453;-70
2023/10/15 05:46:05;;;;;;;4.32;2.60;;;7.70;99.90;;;;;;5043540;28;20532;-70
2023/10/15 05:48:32;;;;;;;4.13;2.63;;;7.70;99.90;;;;;;5037451;28;20501;-71
2023/10/15 05:50:59;;;;;;;5.00;2.50;;;7.70;99.90;;;;;;5044080;28;20483;-70
2023/10/15 05:53:26;;;;;;;6.50;2.80;;;7.80;99.90;;;;;;5045351;28;20429;-71
2023/10/15 05:55:54;;;;;;;5.38;2.80;;;7.80;99.90;;;;;;5045192;28;20429;-71
2023/10/15 05:58:20;;;;;;;5.32;2.63;;;7.80;99.90;;;;;;5034857;28;20931;-71
2023/10/15 06:00:47;;;;;;;5.88;2.85;;;7.80;99.90;;;;;;5042462;28;20437;-70
2023/10/15 06:03:14;;;;;;;5.05;2.40;;;7.80;99.90;;;;;;5042315;28;20524;-70
2023/10/15 06:05:40;;;;;;;5.40;2.40;;;7.80;99.90;;;;;;5043885;28;20474;-71
2023/10/15 06:08:08;;;;;;;7.95;3.30;;;7.80;99.90;;;;;;5043579;28;20433;-70
2023/10/15 06:10:35;;;;;;;4.20;2.70;;;7.80;99.90;;;;;;5042958;28;20445;-71
2023/10/15 06:13:03;;;;;;;4.88;2.53;;;7.80;99.90;;;;;;5046340;28;20417;-70
2023/10/15 06:15:30;;;;;;;3.97;2.83;;;7.70;99.90;;;;;;5044784;28;20581;-70
2023/10/15 06:17:57;;;;;;;5.00;2.80;;;7.70;99.90;;;;;;5043892;28;20429;-70
2023/10/15 06:20:24;;;;;;;5.03;3.00;;;7.70;99.90;;;;;;5047173;28;20512;-70
2023/10/15 06:22:55;;;;;;;3.90;2.95;;;7.70;99.90;;;;;;5045511;28;20433;-70
2023/10/15 06:25:23;;;;;;;5.17;2.70;;;7.60;99.90;;;;;;5041430;28;20459;-70
2023/10/15 06:27:50;;;;;;;4.82;3.17;;;7.60;99.90;;;;;;5039744;28;20469;-70
2023/10/15 06:30:19;;;;;;;5.70;3.00;;;7.60;99.90;;;;;;5035455;28;20526;-70
2023/10/15 06:32:47;;;;;;;5.13;3.10;;;7.60;99.90;;;;;;5045054;28;20453;-69
2023/10/15 06:35:18;;;;;;;3.65;3.00;;;7.60;99.90;;;;;;5040965;28;20543;-70
2023/10/15 06:37:45;;;;;;;4.07;3.20;;;7.60;99.90;;;;;;5037997;28;20582;-70
2023/10/15 06:40:13;;;;;;;5.55;3.40;;;7.60;99.90;;;;;;5043260;28;20701;-70
2023/10/15 06:42:40;;;;;;;5.60;3.00;;;7.50;99.90;;;;;;5045358;28;20437;-69
2023/10/15 06:45:08;;;;;;;4.82;3.50;;;7.50;99.90;;;;;;5044600;28;20433;-70
2023/10/15 06:47:36;;;;;;;6.60;3.80;;;7.50;99.90;;;;;;5037627;28;20432;-69
2023/10/15 06:50:07;;;;;;;6.10;4.00;;;7.50;99.90;;;;;;5033601;28;20425;-69
2023/10/15 06:52:37;;;;;;;5.13;4.18;;;7.50;99.90;;;;;;5036308;28;20507;-69
2023/10/15 06:55:05;;;;;;;5.65;4.40;;;7.50;99.90;;;;;;5040864;28;20561;-76
2023/10/15 06:57:31;;;;;;;5.30;4.10;;;7.60;99.90;;;;;;5041006;28;20450;-76
2023/10/15 06:59:58;;;;;;;4.80;4.15;;;7.60;99.90;;;;;;5043242;28;20520;-74
2023/10/15 07:02:28;;;;;;;6.60;3.80;;;7.60;99.90;;;;;;5041444;28;20440;-69
2023/10/15 07:04:57;;;;;;;6.20;3.83;;;7.60;99.90;;;;;;5044750;28;20451;-69
2023/10/15 07:07:24;;;;;;;5.50;4.10;;;7.50;99.90;;;;;;5042307;28;20491;-69
2023/10/15 07:09:52;;;;;;;7.43;3.90;;;7.50;99.90;;;;;;5044493;28;20435;-70
2023/10/15 07:12:18;;;;;;;6.10;4.30;;;7.40;99.90;;;;;;5044656;28;20429;-70
2023/10/15 07:14:45;;;;;;;4.37;3.70;;;7.40;99.90;;;;;;5043750;28;20436;-70
2023/10/15 07:17:12;;;;;;;3.83;3.40;;;7.50;99.90;;;;;;5043607;28;20439;-70
2023/10/15 07:19:39;;;;;;;4.07;3.17;;;7.50;99.90;;;;;;5040849;28;20437;-70
2023/10/15 07:22:07;;;;;;;4.80;3.50;;;7.50;99.90;;;;;;5041888;28;20429;-69
2023/10/15 07:24:33;;;;;;;5.20;3.30;;;7.50;99.90;;;;;;5042658;28;20537;-70
2023/10/15 07:27:01;;;;;;;3.67;3.15;;;7.50;99.90;;;;;;5043297;28;20429;-70
2023/10/15 07:29:29;;;;;;;4.53;3.90;;;7.60;99.90;;;;;;5044192;28;20425;-69
2023/10/15 07:31:56;;;;;;;4.80;3.85;;;7.60;99.90;;;;;;5037713;28;20442;-69
2023/10/15 07:34:23;;;;;;;4.10;3.70;;;7.60;99.90;;;;;;5042675;28;20474;-70
2023/10/15 07:36:55;;;;;;;4.47;4.07;;;7.60;99.90;;;;;;5031652;28;20432;-70
2023/10/15 07:39:23;;;;;;;4.75;3.90;;;7.60;99.90;;;;;;5039529;28;20845;-69
2023/10/15 07:41:51;;;;;;;3.70;3.40;;;7.60;99.90;;;;;;5043848;28;20428;-69
2023/10/15 07:44:18;;;;;;;3.47;3.17;;;7.70;99.90;;;;;;5044208;28;20428;-70
2023/10/15 07:46:45;;;;;;;4.07;3.42;;;7.80;99.90;;;;;;5042307;28;20425;-69
2023/10/15 07:49:12;;;;;;;3.92;3.10;;;7.90;99.90;;;;;;5044134;28;20756;-70
2023/10/15 07:51:39;;;;;;;4.72;3.50;;;8.00;99.90;;;;;;5035117;28;20424;-70
2023/10/15 07:54:06;;;;;;;4.10;3.40;;;8.00;99.90;;;;;;5040274;28;20806;-69
2023/10/15 07:56:35;;;;;;;4.00;3.08;;;8.10;99.90;;;;;;5041255;28;20437;-70
2023/10/15 07:59:05;;;;;;;4.78;3.60;;;8.10;99.90;;;;;;5043311;28;21544;-70
2023/10/15 08:01:32;;;;;;;4.00;3.70;;;8.10;99.90;;;;;;5030455;28;20433;-70
2023/10/15 08:03:59;;;;;;;4.10;3.50;;;8.20;99.90;;;;;;5044966;28;20507;-70
2023/10/15 08:06:26;;;;;;;4.10;3.70;;;8.10;99.90;;;;;;5034871;28;20431;-70
2023/10/15 08:08:52;;;;;;;5.65;4.20;;;8.10;99.90;;;;;;5037646;28;20429;-69
2023/10/15 08:11:20;;;;;;;4.78;4.30;;;8.10;99.90;;;;;;5043506;28;20441;-70
2023/10/15 08:13:48;;;;;;;4.10;3.53;;;8.10;99.90;;;;;;5042650;28;20459;-70
2023/10/15 08:16:15;;;;;;;4.90;4.10;;;8.10;99.90;;;;;;5042856;28;20440;-69
2023/10/15 08:18:42;;;;;;;4.20;3.80;;;8.10;99.90;;;;;;5042225;28;20430;-70
2023/10/15 08:21:11;;;;;;;4.43;4.03;;;8.10;99.90;;;;;;5045552;28;20425;-70
2023/10/15 08:23:38;;;;;;;4.00;3.60;;;8.20;99.90;;;;;;5037421;28;20410;-70
2023/10/15 08:26:06;;;;;;;4.43;4.03;;;8.20;99.90;;;;;;5041295;28;20437;-71
2023/10/15 08:28:33;;;;;;;6.00;4.20;;;8.30;99.90;;;;;;5041099;28;20516;-70
2023/10/15 08:31:01;;;;;;;5.07;4.65;;;8.30;99.90;;;;;;5042034;28;20433;-69
2023/10/15 08:33:28;;;;;;;4.78;4.38;;;8.40;99.90;;;;;;5044117;28;20443;-70
2023/10/15 08:35:55;;;;;;;4.80;4.40;;;8.30;99.90;;;;;;5045707;28;20428;-70
2023/10/15 08:38:22;;;;;;;6.03;4.80;;;8.30;99.90;;;;;;5047500;28;20456;-69
2023/10/15 08:40:53;;;;;;;6.93;4.63;;;8.20;99.90;;;;;;5045240;28;20440;-69
2023/10/15 08:43:24;;;;;;;5.35;4.85;;;8.20;99.90;;;;;;5046151;28;20435;-69
2023/10/15 08:45:52;;;;;;;8.05;5.55;;;8.20;99.90;;;;;;5044593;28;20933;-65
2023/10/15 08:48:25;;;;;;;6.15;5.45;;;8.30;99.90;;;;;;5044021;28;20460;-67
2023/10/15 08:50:53;;;;;;;5.78;5.18;;;8.40;99.90;;;;;;5040054;28;20607;-73
2023/10/15 08:53:23;;;;;;;5.00;4.55;;;8.50;99.90;;;;;;5045440;28;20429;-70
2023/10/15 08:55:50;;;;;;;5.70;4.75;;;8.50;99.90;;;;;;5049489;28;20426;-70
2023/10/15 08:58:18;;;;;;;5.25;4.40;;;8.60;99.90;;;;;;5044040;28;20459;-70
2023/10/15 09:00:47;;;;;;;5.10;4.70;;;8.60;99.90;;;;;;5047816;28;20413;-70
2023/10/15 09:03:14;;;;;;;5.05;3.80;;;8.60;99.90;;;;;;5046924;28;20427;-70
2023/10/15 09:05:43;;;;;;;4.18;3.78;;;8.70;99.90;;;;;;5047225;28;20494;-71
2023/10/15 09:08:13;;;;;;;3.70;3.40;;;8.70;99.90;;;;;;5043092;28;20446;-71
2023/10/15 09:10:41;;;;;;;3.83;3.40;;;8.70;99.90;;;;;;5038418;28;20429;-71
2023/10/15 09:13:14;;;;;;;3.90;3.60;;;8.80;99.90;;;;;;5047580;28;20427;-71
2023/10/15 09:15:43;;;;;;;4.38;3.97;;;8.80;99.90;;;;;;5048119;28;20501;-70
2023/10/15 09:18:11;;;;;;;5.03;4.60;;;8.80;99.90;;;;;;5046302;28;20427;-70
2023/10/15 09:20:42;;;;;;;5.03;4.53;;;8.90;99.90;;;;;;5049036;28;20990;-70
2023/10/15 09:23:11;;;;;;;4.40;4.00;;;8.90;99.90;;;;;;5047846;28;20421;-70
2023/10/15 09:25:38;;;;;;;4.80;4.30;;;8.90;99.90;;;;;;5045693;28;20429;-70
2023/10/15 09:28:05;;;;;;;4.38;4.03;;;9.00;99.90;;;;;;5047005;28;20932;-70
2023/10/15 09:30:32;;;;;;;5.10;3.72;;;9.00;99.90;;;;;;5046864;28;20425;-70
2023/10/15 09:32:59;;;;;;;3.80;3.00;;;8.90;99.90;;;;;;5047807;28;20429;-70
2023/10/15 09:35:29;;;;;;;3.80;3.03;;;8.80;99.90;;;;;;5045534;28;20429;-67
2023/10/15 09:37:57;;;;;;;3.30;3.10;;;8.80;99.90;;;;;;5039725;28;20441;-69
2023/10/15 09:40:30;;;;;;;3.57;3.17;;;8.80;99.90;;;;;;5046377;28;20413;-68
2023/10/15 09:42:59;;;;;;;3.42;3.10;;;9.00;99.90;;;;;;5046920;28;20598;-68
2023/10/15 09:45:26;;;;;;;4.13;2.88;;;9.20;99.90;;;;;;5044875;28;20421;-69
2023/10/15 09:47:57;;;;;;;4.60;2.60;;;9.40;99.90;;;;;;5047400;28;20422;-68
2023/10/15 09:50:27;;;;;;;3.22;3.00;;;9.50;99.90;;;;;;5045681;28;20433;-69
2023/10/15 09:53:00;;;;;;;3.83;2.70;;;9.50;99.90;;;;;;5045936;28;20532;-68
2023/10/15 09:55:31;;;;;;;2.88;2.25;;;9.50;99.90;;;;;;5041902;28;20451;-69
2023/10/15 09:58:00;;;;;;;2.80;2.25;;;9.50;99.90;;;;;;5046453;28;20830;-72
2023/10/15 10:00:46;;;;;;;2.15;1.90;;;9.50;99.90;;;;;;5044179;28;20444;-72
2023/10/15 10:03:59;;;;;;;2.30;1.70;;;9.40;99.90;;;;;;5043441;28;21174;-72
2023/10/15 10:06:40;;;;;;;2.30;2.08;;;9.40;99.90;;;;;;5017289;28;20433;-72
2023/10/15 10:09:24;;;;;;;2.80;2.17;;;9.40;99.90;;;;;;5044689;28;20433;-72
2023/10/15 10:12:06;;;;;;;2.53;2.33;;;9.50;99.90;;;;;;5042345;28;20429;-71
2023/10/15 10:14:47;;;;;;;4.00;2.10;;;9.60;99.90;;;;;;5038043;28;20472;-71
2023/10/15 10:17:18;;;;;;;2.40;2.08;;;9.60;99.90;;;;;;5045347;28;20429;-72
2023/10/15 10:19:48;;;;;;;2.30;2.10;;;9.50;99.90;;;;;;5043059;28;20943;-72
2023/10/15 10:22:24;;;;;;;2.67;1.90;;;9.50;99.90;;;;;;5043364;28;20444;-71
2023/10/15 10:24:51;;;;;;;2.85;2.00;;;9.50;99.90;;;;;;5044831;28;20559;-71
2023/10/15 10:27:20;;;;;;;3.50;2.20;;;9.60;99.90;;;;;;5040000;28;20972;-71
2023/10/15 10:29:51;;;;;;;4.85;2.53;;;9.60;99.90;;;;;;5042137;28;20444;-71
2023/10/15 10:32:19;;;;;;;3.13;2.00;;;9.60;99.90;;;;;;5044003;28;20444;-71
2023/10/15 10:34:46;;;;;;;3.03;2.13;;;9.70;99.90;;;;;;5044966;28;20725;-71
2023/10/15 10:37:23;;;;;;;2.70;2.40;;;9.80;99.90;;;;;;5044536;28;20702;-71
2023/10/15 10:39:49;;;;;;;3.17;2.47;;;9.90;99.90;;;;;;5038534;28;20504;-71
2023/10/15 10:42:26;;;;;;;3.92;2.10;;;9.90;99.90;;;;;;5040800;28;20543;-68
2023/10/15 10:44:56;;;;;;;3.85;2.00;;;10.10;98.60;;;;;;5043954;28;20500;-68
2023/10/15 10:47:24;;;;;;;3.70;2.03;;;10.30;97.90;;;;;;5038295;28;20455;-68
2023/10/15 10:49:56;;;;;;;4.00;2.40;;;10.40;97.40;;;;;;5042871;28;20787;-68
2023/10/15 10:52:30;;;;;;;3.10;1.90;;;10.50;97.00;;;;;;5043385;28;20969;-68
2023/10/15 10:55:19;;;;;;;3.35;2.10;;;10.60;96.20;;;;;;5043598;28;20437;-68
2023/10/15 10:57:50;;;;;;;3.35;2.20;;;10.90;96.10;;;;;;5038452;28;20458;-68
2023/10/15 11:00:17;;;;;;;3.50;2.08;;;11.30;96.60;;;;;;5034972;28;20415;-68
2023/10/15 11:02:44;;;;;;;3.20;1.90;;;11.90;96.00;;;;;;5041512;28;20442;-69
2023/10/15 11:05:12;;;;;;;2.78;1.60;;;12.30;92.70;;;;;;5043617;28;20433;-68
2023/10/15 11:07:40;;;;;;;3.53;1.70;;;12.50;90.80;;;;;;5041312;28;20429;-69
2023/10/15 11:10:09;;;;;;;3.50;2.10;;;12.50;90.60;;;;;;5041601;28;20540;-68
2023/10/15 11:12:36;;;;;;;2.97;1.50;;;12.60;90.70;;;;;;5041903;28;20501;-71
2023/10/15 11:15:08;;;;;;;4.63;1.80;;;12.60;88.50;;;;;;5044068;28;20486;-69
2023/10/15 11:17:35;;;;;;;3.83;1.90;;;12.60;86.50;;;;;;5038013;28;21023;-68
2023/10/15 11:20:03;;;;;;;2.80;1.80;;;12.30;88.10;;;;;;5040252;28;20441;-69
2023/10/15 11:22:30;;;;;;;3.35;1.90;;;12.50;89.40;;;;;;5039763;28;20849;-68
2023/10/15 11:24:57;;;;;;;3.85;2.00;;;12.80;86.50;;;;;;5041183;28;20470;-69
2023/10/15 11:27:24;;;;;;;3.78;2.00;;;12.90;85.80;;;;;;5041273;28;20429;-68
2023/10/15 11:29:51;;;;;;;2.60;1.50;;;13.00;84.20;;;;;;5043558;28;20432;-69
2023/10/15 11:32:19;;;;;;;2.70;1.83;;;13.00;84.00;;;;;;5040007;28;20432;-68
2023/10/15 11:34:46;;;;;;;2.83;1.70;;;12.70;90.70;;;;;;5042167;28;20417;-68
2023/10/15 11:37:16;;;;;;;2.25;1.10;;;12.30;90.90;;;;;;5038797;28;20456;-71
2023/10/15 11:39:47;;;;;;;2.40;1.20;;;11.90;91.30;;;;;;5037447;28;20447;-71
2023/10/15 11:42:18;;;;;;;1.73;1.03;;;11.50;93.30;;;;;;5039766;28;20993;-72
2023/10/15 11:44:46;;;;;;;2.50;1.30;;;11.30;93.50;;;;;;5039269;28;20819;-76
2023/10/15 11:47:16;;;;;;;2.55;1.10;;;11.20;93.40;;;;;;5039424;28;20437;-69
2023/10/15 11:49:45;;;;;;;1.52;1.00;;;11.20;95.50;;;;;;5035244;28;20438;-69
2023/10/15 11:52:14;;;;;;;1.77;1.00;;;11.20;96.20;;;;;;5040916;28;20571;-70
2023/10/15 11:54:43;;;;;;;3.35;1.20;;;11.10;96.20;;;;;;5038220;28;20448;-70
2023/10/15 11:57:16;;;;;;;1.50;1.00;;;11.20;96.10;;;;;;5041190;28;20436;-70
2023/10/15 11:59:43;;;;;;;2.10;1.27;;;11.20;95.10;;;;;;5042220;28;20437;-70
2023/10/15 12:02:11;;;;;;;2.10;1.55;;;11.10;94.80;;;;;;5036841;28;20496;-69
2023/10/15 12:04:38;;;;;;;2.53;1.88;;;11.20;94.50;;;;;;5040684;28;20499;-69
2023/10/15 12:07:15;;;;;;;3.00;1.80;;;11.40;93.10;;;;;;5035071;28;20867;-69
2023/10/15 12:09:44;;;;;;;5.03;2.70;;;11.70;92.90;;;;;;5035448;28;20490;-69
2023/10/15 12:12:11;;;;;;;2.35;1.70;;;11.70;91.70;;;;;;5041383;28;20634;-69
2023/10/15 12:14:38;;;;;;;3.20;1.80;;;11.90;91.30;;;;;;5036807;28;20431;-69
2023/10/15 12:17:04;;;;;;;2.27;1.73;;;12.10;91.60;;;;;;5043480;28;20701;-69
2023/10/15 12:19:31;;;;;;;2.42;1.60;;;12.40;91.30;;;;;;5042116;28;20507;-69
2023/10/15 12:21:59;;;;;;;3.83;1.70;;;12.80;90.10;;;;;;5043033;28;20433;-69
2023/10/15 12:24:27;;;;;;;1.95;1.65;;;13.20;89.10;;;;;;5049131;28;20428;-69
2023/10/15 12:26:54;;;;;;;2.72;1.80;;;13.50;88.70;;;;;;5045791;28;20432;-69
2023/10/15 12:29:28;;;;;;;2.42;1.77;;;13.80;87.50;;;;;;5042791;28;20441;-69
2023/10/15 12:31:55;;;;;;;2.42;1.70;;;13.70;82.10;;;;;;5045056;28;20458;-75
2023/10/15 12:34:22;;;;;;;2.92;1.90;;;13.50;82.90;;;;;;5042592;28;20485;-69
2023/10/15 12:36:50;;;;;;;2.70;2.10;;;13.20;84.70;;;;;;5050310;28;20846;-69
2023/10/15 12:39:17;;;;;;;2.92;2.10;;;12.90;90.40;;;;;;5042024;28;20999;-69
2023/10/15 12:41:45;;;;;;;2.90;2.10;;;12.60;91.50;;;;;;5044333;28;20440;-69
2023/10/15 12:44:11;;;;;;;3.50;2.03;;;12.30;89.00;;;;;;5046453;28;20485;-69
2023/10/15 12:46:40;;;;;;;2.20;2.00;;;12.10;91.30;;;;;;5045253;28;20477;-70
2023/10/15 12:49:08;;;;;;;3.40;2.30;;;11.90;93.10;;;;;;5044923;28;20887;-69
2023/10/15 12:51:35;;;;;;;3.65;2.20;;;11.80;94.40;;;;;;5045083;28;20429;-70
2023/10/15 12:54:03;;;;;;;2.80;2.17;;;11.70;95.80;;;;;;5047152;28;20859;-69
2023/10/15 12:56:30;;;;;;;2.83;2.22;;;11.70;96.10;;;;;;5045452;28;20552;-69
2023/10/15 12:58:59;;;;;;;3.20;2.25;;;11.60;96.90;;;;;;5045895;28;20837;-69
2023/10/15 13:01:26;;;;;;;2.80;2.00;;;11.60;96.90;;;;;;5044582;28;20448;-69
2023/10/15 13:03:54;;;;;;;2.85;2.08;;;11.70;96.90;;;;;;5045453;28;20433;-68
2023/10/15 13:06:20;;;;;;;3.00;2.13;;;11.70;96.40;;;;;;5045874;28;20421;-68